sensor_id;sensor_type;location;lat;lon;timestamp;temperature;humidity
72468;SHT30;60626;43.582;1.470;2022-09-09T00:02:00;24.55;56.68
72468;SHT30;60626;43.582;1.470;2022-09-09T00:07:21;24.56;56.40
72468;SHT30;60626;43.582;1.470;2022-09-09T00:10:04;24.61;55.70
72468;SHT30;60626;43.582;1.470;2022-09-09T00:12:41;24.59;56.23
72468;SHT30;60626;43.582;1.470;2022-09-09T00:15:18;24.62;54.92
72468;SHT30;60626;43.582;1.470;2022-09-09T00:17:52;24.59;55.86
72468;SHT30;60626;43.582;1.470;2022-09-09T00:20:49;24.58;55.79
72468;SHT30;60626;43.582;1.470;2022-09-09T00:23:30;24.61;55.99
72468;SHT30;60626;43.582;1.470;2022-09-09T00:31:31;24.58;55.48
72468;SHT30;60626;43.582;1.470;2022-09-09T00:34:24;24.58;55.98
72468;SHT30;60626;43.582;1.470;2022-09-09T00:36:53;24.59;55.19
72468;SHT30;60626;43.582;1.470;2022-09-09T00:39:42;24.59;55.73
72468;SHT30;60626;43.582;1.470;2022-09-09T00:42:15;24.59;55.85
72468;SHT30;60626;43.582;1.470;2022-09-09T00:50:32;24.66;55.40
72468;SHT30;60626;43.582;1.470;2022-09-09T00:55:56;24.68;55.24
72468;SHT30;60626;43.582;1.470;2022-09-09T00:58:26;24.65;54.95
72468;SHT30;60626;43.582;1.470;2022-09-09T01:01:08;24.62;55.48
72468;SHT30;60626;43.582;1.470;2022-09-09T01:16:57;24.72;55.48
72468;SHT30;60626;43.582;1.470;2022-09-09T01:27:55;24.71;55.64
72468;SHT30;60626;43.582;1.470;2022-09-09T01:30:23;24.66;55.73
72468;SHT30;60626;43.582;1.470;2022-09-09T01:32:53;24.66;55.94
72468;SHT30;60626;43.582;1.470;2022-09-09T01:35:31;24.65;56.12
72468;SHT30;60626;43.582;1.470;2022-09-09T01:37:59;24.69;56.23
72468;SHT30;60626;43.582;1.470;2022-09-09T01:40:26;24.73;56.42
72468;SHT30;60626;43.582;1.470;2022-09-09T01:42:54;24.72;56.29
72468;SHT30;60626;43.582;1.470;2022-09-09T01:45:22;24.72;56.08
72468;SHT30;60626;43.582;1.470;2022-09-09T01:47:52;24.73;55.01
72468;SHT30;60626;43.582;1.470;2022-09-09T01:50:20;24.66;55.93
72468;SHT30;60626;43.582;1.470;2022-09-09T01:52:50;24.68;55.68
72468;SHT30;60626;43.582;1.470;2022-09-09T01:55:28;24.66;55.56
72468;SHT30;60626;43.582;1.470;2022-09-09T02:00:24;24.62;55.21
72468;SHT30;60626;43.582;1.470;2022-09-09T02:03:03;24.62;55.45
72468;SHT30;60626;43.582;1.470;2022-09-09T02:05:40;24.59;55.14
72468;SHT30;60626;43.582;1.470;2022-09-09T02:08:17;24.55;55.21
72468;SHT30;60626;43.582;1.470;2022-09-09T02:10:55;24.51;55.41
72468;SHT30;60626;43.582;1.470;2022-09-09T02:13:22;24.49;55.25
72468;SHT30;60626;43.582;1.470;2022-09-09T02:15:56;24.48;55.08
72468;SHT30;60626;43.582;1.470;2022-09-09T02:18:28;24.42;55.06
72468;SHT30;60626;43.582;1.470;2022-09-09T02:20:58;24.41;54.98
72468;SHT30;60626;43.582;1.470;2022-09-09T02:23:26;24.39;55.18
72468;SHT30;60626;43.582;1.470;2022-09-09T02:25:55;24.37;54.92
72468;SHT30;60626;43.582;1.470;2022-09-09T02:28:25;24.35;55.14
72468;SHT30;60626;43.582;1.470;2022-09-09T02:30:52;24.34;55.12
72468;SHT30;60626;43.582;1.470;2022-09-09T02:33:27;24.35;55.29
72468;SHT30;60626;43.582;1.470;2022-09-09T02:35:55;24.31;55.02
72468;SHT30;60626;43.582;1.470;2022-09-09T02:38:33;24.31;55.10
72468;SHT30;60626;43.582;1.470;2022-09-09T02:41:01;24.32;54.48
72468;SHT30;60626;43.582;1.470;2022-09-09T02:43:33;24.28;54.78
72468;SHT30;60626;43.582;1.470;2022-09-09T02:49:17;24.24;54.58
72468;SHT30;60626;43.582;1.470;2022-09-09T02:51:53;24.20;54.70
72468;SHT30;60626;43.582;1.470;2022-09-09T02:54:28;24.18;54.73
72468;SHT30;60626;43.582;1.470;2022-09-09T02:57:08;24.16;54.95
72468;SHT30;60626;43.582;1.470;2022-09-09T02:59:37;24.17;54.94
72468;SHT30;60626;43.582;1.470;2022-09-09T03:02:04;24.14;54.84
72468;SHT30;60626;43.582;1.470;2022-09-09T03:04:31;24.14;55.12
72468;SHT30;60626;43.582;1.470;2022-09-09T03:06:58;24.17;55.16
72468;SHT30;60626;43.582;1.470;2022-09-09T03:09:25;24.16;55.16
72468;SHT30;60626;43.582;1.470;2022-09-09T03:11:52;24.14;54.91
72468;SHT30;60626;43.582;1.470;2022-09-09T03:14:19;24.14;55.11
72468;SHT30;60626;43.582;1.470;2022-09-09T03:16:47;24.13;55.00
72468;SHT30;60626;43.582;1.470;2022-09-09T03:19:14;24.16;55.14
72468;SHT30;60626;43.582;1.470;2022-09-09T03:21:41;24.13;54.97
72468;SHT30;60626;43.582;1.470;2022-09-09T03:24:08;24.13;55.05
72468;SHT30;60626;43.582;1.470;2022-09-09T03:26:35;24.10;55.03
72468;SHT30;60626;43.582;1.470;2022-09-09T03:29:04;24.09;54.93
72468;SHT30;60626;43.582;1.470;2022-09-09T03:31:33;24.09;55.08
72468;SHT30;60626;43.582;1.470;2022-09-09T03:34:02;24.09;55.06
72468;SHT30;60626;43.582;1.470;2022-09-09T03:36:29;24.09;55.00
72468;SHT30;60626;43.582;1.470;2022-09-09T03:38:57;24.10;54.88
72468;SHT30;60626;43.582;1.470;2022-09-09T03:41:24;24.10;54.24
72468;SHT30;60626;43.582;1.470;2022-09-09T03:43:51;24.07;54.62
72468;SHT30;60626;43.582;1.470;2022-09-09T03:46:20;24.06;54.55
72468;SHT30;60626;43.582;1.470;2022-09-09T03:48:47;24.04;55.03
72468;SHT30;60626;43.582;1.470;2022-09-09T03:51:13;24.00;55.09
72468;SHT30;60626;43.582;1.470;2022-09-09T03:53:41;23.99;54.59
72468;SHT30;60626;43.582;1.470;2022-09-09T03:56:09;23.92;55.14
72468;SHT30;60626;43.582;1.470;2022-09-09T03:58:37;23.86;55.06
72468;SHT30;60626;43.582;1.470;2022-09-09T04:01:08;23.84;54.79
72468;SHT30;60626;43.582;1.470;2022-09-09T04:03:35;23.83;55.22
72468;SHT30;60626;43.582;1.470;2022-09-09T04:06:03;23.84;55.29
72468;SHT30;60626;43.582;1.470;2022-09-09T04:08:30;23.83;55.55
72468;SHT30;60626;43.582;1.470;2022-09-09T04:11:01;23.87;55.45
72468;SHT30;60626;43.582;1.470;2022-09-09T04:13:33;23.90;55.49
72468;SHT30;60626;43.582;1.470;2022-09-09T04:16:02;23.92;55.37
72468;SHT30;60626;43.582;1.470;2022-09-09T04:18:30;23.87;55.36
72468;SHT30;60626;43.582;1.470;2022-09-09T04:20:58;23.87;55.46
72468;SHT30;60626;43.582;1.470;2022-09-09T04:23:26;23.92;55.36
72468;SHT30;60626;43.582;1.470;2022-09-09T04:25:57;23.87;55.17
72468;SHT30;60626;43.582;1.470;2022-09-09T04:28:27;23.87;55.25
72468;SHT30;60626;43.582;1.470;2022-09-09T04:30:55;23.84;55.18
72468;SHT30;60626;43.582;1.470;2022-09-09T04:33:24;23.84;55.05
72468;SHT30;60626;43.582;1.470;2022-09-09T04:35:53;23.79;55.24
72468;SHT30;60626;43.582;1.470;2022-09-09T04:38:21;23.76;55.23
72468;SHT30;60626;43.582;1.470;2022-09-09T04:40:50;23.76;55.23
72468;SHT30;60626;43.582;1.470;2022-09-09T04:43:18;23.74;55.30
72468;SHT30;60626;43.582;1.470;2022-09-09T04:45:49;23.73;55.08
72468;SHT30;60626;43.582;1.470;2022-09-09T04:48:18;23.70;55.59
72468;SHT30;60626;43.582;1.470;2022-09-09T04:51:03;23.70;55.31
72468;SHT30;60626;43.582;1.470;2022-09-09T04:53:31;23.65;55.64
72468;SHT30;60626;43.582;1.470;2022-09-09T04:56:05;23.67;55.68
72468;SHT30;60626;43.582;1.470;2022-09-09T04:58:33;23.66;55.17
72468;SHT30;60626;43.582;1.470;2022-09-09T05:01:04;23.61;55.50
72468;SHT30;60626;43.582;1.470;2022-09-09T05:03:31;23.49;55.67
72468;SHT30;60626;43.582;1.470;2022-09-09T05:06:05;23.38;56.23
72468;SHT30;60626;43.582;1.470;2022-09-09T05:08:32;23.35;56.42
72468;SHT30;60626;43.582;1.470;2022-09-09T05:10:59;23.35;56.55
72468;SHT30;60626;43.582;1.470;2022-09-09T05:13:26;23.39;56.41
72468;SHT30;60626;43.582;1.470;2022-09-09T05:15:54;23.38;56.01
72468;SHT30;60626;43.582;1.470;2022-09-09T05:18:25;23.39;55.61
72468;SHT30;60626;43.582;1.470;2022-09-09T05:20:51;23.44;56.22
72468;SHT30;60626;43.582;1.470;2022-09-09T05:23:18;23.44;56.28
72468;SHT30;60626;43.582;1.470;2022-09-09T05:25:55;23.45;56.87
72468;SHT30;60626;43.582;1.470;2022-09-09T05:28:24;23.46;57.03
72468;SHT30;60626;43.582;1.470;2022-09-09T05:30:59;23.46;57.28
72468;SHT30;60626;43.582;1.470;2022-09-09T05:33:27;23.45;57.98
72468;SHT30;60626;43.582;1.470;2022-09-09T05:36:07;23.48;58.52
72468;SHT30;60626;43.582;1.470;2022-09-09T05:38:34;23.48;59.12
72468;SHT30;60626;43.582;1.470;2022-09-09T05:41:03;23.46;59.51
72468;SHT30;60626;43.582;1.470;2022-09-09T05:43:30;23.52;59.84
72468;SHT30;60626;43.582;1.470;2022-09-09T05:46:05;23.49;59.11
72468;SHT30;60626;43.582;1.470;2022-09-09T05:48:35;23.51;60.57
72468;SHT30;60626;43.582;1.470;2022-09-09T05:51:02;23.48;60.41
72468;SHT30;60626;43.582;1.470;2022-09-09T05:53:30;23.42;60.49
72468;SHT30;60626;43.582;1.470;2022-09-09T05:56:05;23.39;60.37
72468;SHT30;60626;43.582;1.470;2022-09-09T05:58:33;23.32;61.37
72468;SHT30;60626;43.582;1.470;2022-09-09T06:01:08;23.28;61.62
72468;SHT30;60626;43.582;1.470;2022-09-09T06:03:38;23.29;61.17
72468;SHT30;60626;43.582;1.470;2022-09-09T06:06:07;23.22;61.38
72468;SHT30;60626;43.582;1.470;2022-09-09T06:08:35;23.15;61.85
72468;SHT30;60626;43.582;1.470;2022-09-09T06:11:08;23.12;62.55
72468;SHT30;60626;43.582;1.470;2022-09-09T06:13:35;23.14;61.99
72468;SHT30;60626;43.582;1.470;2022-09-09T06:16:04;23.12;62.01
72468;SHT30;60626;43.582;1.470;2022-09-09T06:18:31;23.07;61.93
72468;SHT30;60626;43.582;1.470;2022-09-09T06:23:25;23.10;61.96
72468;SHT30;60626;43.582;1.470;2022-09-09T06:26:07;23.14;62.84
72468;SHT30;60626;43.582;1.470;2022-09-09T06:28:35;23.15;62.30
72468;SHT30;60626;43.582;1.470;2022-09-09T06:31:08;23.14;62.30
72468;SHT30;60626;43.582;1.470;2022-09-09T06:33:41;23.17;62.39
72468;SHT30;60626;43.582;1.470;2022-09-09T06:36:11;23.17;61.73
72468;SHT30;60626;43.582;1.470;2022-09-09T06:38:38;23.17;62.68
72468;SHT30;60626;43.582;1.470;2022-09-09T06:41:05;23.18;62.69
72468;SHT30;60626;43.582;1.470;2022-09-09T06:43:32;23.15;62.86
72468;SHT30;60626;43.582;1.470;2022-09-09T06:46:02;23.15;62.77
72468;SHT30;60626;43.582;1.470;2022-09-09T06:48:29;23.18;63.04
72468;SHT30;60626;43.582;1.470;2022-09-09T06:51:19;23.19;63.20
72468;SHT30;60626;43.582;1.470;2022-09-09T06:53:50;23.19;62.91
72468;SHT30;60626;43.582;1.470;2022-09-09T06:56:37;23.19;62.98
72468;SHT30;60626;43.582;1.470;2022-09-09T06:59:07;23.17;62.75
72468;SHT30;60626;43.582;1.470;2022-09-09T07:01:37;23.14;62.83
72468;SHT30;60626;43.582;1.470;2022-09-09T07:04:04;23.15;62.41
72468;SHT30;60626;43.582;1.470;2022-09-09T07:06:37;23.12;62.94
72468;SHT30;60626;43.582;1.470;2022-09-09T07:09:06;23.14;62.86
72468;SHT30;60626;43.582;1.470;2022-09-09T07:11:42;23.12;62.29
72468;SHT30;60626;43.582;1.470;2022-09-09T07:14:09;23.12;63.03
72468;SHT30;60626;43.582;1.470;2022-09-09T07:16:40;23.15;63.19
72468;SHT30;60626;43.582;1.470;2022-09-09T07:19:07;23.15;63.26
72468;SHT30;60626;43.582;1.470;2022-09-09T07:21:34;23.17;62.72
72468;SHT30;60626;43.582;1.470;2022-09-09T07:24:01;23.10;62.17
72468;SHT30;60626;43.582;1.470;2022-09-09T07:26:31;23.06;62.81
72468;SHT30;60626;43.582;1.470;2022-09-09T07:28:57;23.06;63.04
72468;SHT30;60626;43.582;1.470;2022-09-09T07:31:27;23.07;63.09
72468;SHT30;60626;43.582;1.470;2022-09-09T07:33:54;23.10;63.85
72468;SHT30;60626;43.582;1.470;2022-09-09T07:36:25;23.17;63.65
72468;SHT30;60626;43.582;1.470;2022-09-09T07:39:07;23.17;63.48
72468;SHT30;60626;43.582;1.470;2022-09-09T07:44:05;23.19;63.18
72468;SHT30;60626;43.582;1.470;2022-09-09T07:46:34;23.19;63.17
72468;SHT30;60626;43.582;1.470;2022-09-09T07:49:02;23.17;63.53
72468;SHT30;60626;43.582;1.470;2022-09-09T07:51:35;23.17;62.84
72468;SHT30;60626;43.582;1.470;2022-09-09T07:54:05;23.15;63.29
72468;SHT30;60626;43.582;1.470;2022-09-09T07:56:33;23.11;63.24
72468;SHT30;60626;43.582;1.470;2022-09-09T07:59:00;23.11;63.95
72468;SHT30;60626;43.582;1.470;2022-09-09T08:01:50;23.11;63.99
72468;SHT30;60626;43.582;1.470;2022-09-09T08:04:21;23.10;63.36
72468;SHT30;60626;43.582;1.470;2022-09-09T08:06:51;23.11;63.69
72468;SHT30;60626;43.582;1.470;2022-09-09T08:09:19;23.12;63.65
72468;SHT30;60626;43.582;1.470;2022-09-09T08:11:47;23.11;63.24
72468;SHT30;60626;43.582;1.470;2022-09-09T08:14:14;23.10;63.14
72468;SHT30;60626;43.582;1.470;2022-09-09T08:16:44;23.11;63.39
72468;SHT30;60626;43.582;1.470;2022-09-09T08:19:11;23.08;63.27
72468;SHT30;60626;43.582;1.470;2022-09-09T08:21:39;23.11;63.05
72468;SHT30;60626;43.582;1.470;2022-09-09T08:24:07;23.10;63.55
72468;SHT30;60626;43.582;1.470;2022-09-09T08:26:37;23.07;63.80
72468;SHT30;60626;43.582;1.470;2022-09-09T08:29:06;23.14;63.76
72468;SHT30;60626;43.582;1.470;2022-09-09T08:34:02;23.12;64.28
72468;SHT30;60626;43.582;1.470;2022-09-09T08:36:44;23.12;64.03
72468;SHT30;60626;43.582;1.470;2022-09-09T08:39:13;23.15;64.73
72468;SHT30;60626;43.582;1.470;2022-09-09T08:50:18;23.27;65.31
72468;SHT30;60626;43.582;1.470;2022-09-09T08:53:04;23.29;65.26
72468;SHT30;60626;43.582;1.470;2022-09-09T08:55:41;23.29;65.56
72468;SHT30;60626;43.582;1.470;2022-09-09T09:01:02;23.37;65.34
72468;SHT30;60626;43.582;1.470;2022-09-09T09:06:54;23.28;64.36
72468;SHT30;60626;43.582;1.470;2022-09-09T09:09:39;23.18;65.16
72468;SHT30;60626;43.582;1.470;2022-09-09T09:12:21;23.10;65.13
72468;SHT30;60626;43.582;1.470;2022-09-09T09:14:48;23.03;64.50
72468;SHT30;60626;43.582;1.470;2022-09-09T09:17:20;22.90;64.91
72468;SHT30;60626;43.582;1.470;2022-09-09T09:19:48;22.80;65.78
72468;SHT30;60626;43.582;1.470;2022-09-09T09:25:00;22.60;64.22
72468;SHT30;60626;43.582;1.470;2022-09-09T09:27:34;22.53;65.34
72468;SHT30;60626;43.582;1.470;2022-09-09T09:30:14;22.52;63.87
72468;SHT30;60626;43.582;1.470;2022-09-09T09:35:24;22.29;65.25
72468;SHT30;60626;43.582;1.470;2022-09-09T09:37:52;22.21;64.62
72468;SHT30;60626;43.582;1.470;2022-09-09T09:40:49;22.15;65.04
72468;SHT30;60626;43.582;1.470;2022-09-09T09:43:21;22.11;65.15
72468;SHT30;60626;43.582;1.470;2022-09-09T09:45:50;22.11;64.91
72468;SHT30;60626;43.582;1.470;2022-09-09T09:48:36;22.08;65.68
72468;SHT30;60626;43.582;1.470;2022-09-09T09:51:09;22.09;64.12
72468;SHT30;60626;43.582;1.470;2022-09-09T09:53:38;22.05;66.15
72468;SHT30;60626;43.582;1.470;2022-09-09T09:56:07;22.07;65.10
72468;SHT30;60626;43.582;1.470;2022-09-09T10:01:28;22.12;65.97
72468;SHT30;60626;43.582;1.470;2022-09-09T10:04:15;22.14;66.12
72468;SHT30;60626;43.582;1.470;2022-09-09T10:06:42;22.15;66.17
72468;SHT30;60626;43.582;1.470;2022-09-09T10:09:29;22.19;66.23
72468;SHT30;60626;43.582;1.470;2022-09-09T10:12:05;22.17;65.74
72468;SHT30;60626;43.582;1.470;2022-09-09T10:23:52;22.12;65.77
72468;SHT30;60626;43.582;1.470;2022-09-09T10:29:27;22.14;66.15
72468;SHT30;60626;43.582;1.470;2022-09-09T10:40:27;22.07;66.23
72468;SHT30;60626;43.582;1.470;2022-09-09T10:49:15;22.17;65.43
72468;SHT30;60626;43.582;1.470;2022-09-09T10:52:24;22.21;64.92
72468;SHT30;60626;43.582;1.470;2022-09-09T10:57:33;22.28;64.38
72468;SHT30;60626;43.582;1.470;2022-09-09T11:00:04;22.29;65.03
72468;SHT30;60626;43.582;1.470;2022-09-09T11:02:36;22.35;65.28
72468;SHT30;60626;43.582;1.470;2022-09-09T11:08:09;22.42;64.63
72468;SHT30;60626;43.582;1.470;2022-09-09T11:13:22;22.51;64.63
72468;SHT30;60626;43.582;1.470;2022-09-09T11:15:59;22.52;62.96
72468;SHT30;60626;43.582;1.470;2022-09-09T11:18:29;22.57;63.69
72468;SHT30;60626;43.582;1.470;2022-09-09T11:21:02;22.60;63.65
72468;SHT30;60626;43.582;1.470;2022-09-09T11:23:44;22.63;64.19
72468;SHT30;60626;43.582;1.470;2022-09-09T11:26:21;22.67;63.71
72468;SHT30;60626;43.582;1.470;2022-09-09T11:37:40;22.69;62.85
72468;SHT30;60626;43.582;1.470;2022-09-09T11:40:23;22.66;63.32
72468;SHT30;60626;43.582;1.470;2022-09-09T11:43:23;22.73;63.11
72468;SHT30;60626;43.582;1.470;2022-09-09T11:45:53;22.79;62.78
72468;SHT30;60626;43.582;1.470;2022-09-09T11:48:34;22.80;62.22
72468;SHT30;60626;43.582;1.470;2022-09-09T11:51:08;22.84;62.12
72468;SHT30;60626;43.582;1.470;2022-09-09T11:53:59;22.90;62.02
72468;SHT30;60626;43.582;1.470;2022-09-09T11:59:04;22.90;61.95
72468;SHT30;60626;43.582;1.470;2022-09-09T12:01:36;22.91;62.45
72468;SHT30;60626;43.582;1.470;2022-09-09T12:07:02;22.99;63.12
72468;SHT30;60626;43.582;1.470;2022-09-09T12:09:45;22.99;62.95
72468;SHT30;60626;43.582;1.470;2022-09-09T12:19:42;23.03;61.84
72468;SHT30;60626;43.582;1.470;2022-09-09T12:30:34;23.19;61.06
72468;SHT30;60626;43.582;1.470;2022-09-09T12:33:10;23.24;61.73
72468;SHT30;60626;43.582;1.470;2022-09-09T12:35:37;23.29;61.00
72468;SHT30;60626;43.582;1.470;2022-09-09T12:38:06;23.38;61.68
72468;SHT30;60626;43.582;1.470;2022-09-09T12:40:37;23.38;62.33
72468;SHT30;60626;43.582;1.470;2022-09-09T12:43:19;23.45;62.64
72468;SHT30;60626;43.582;1.470;2022-09-09T12:45:49;23.51;62.05
72468;SHT30;60626;43.582;1.470;2022-09-09T12:48:31;23.48;61.20
72468;SHT30;60626;43.582;1.470;2022-09-09T12:50:59;23.52;61.48
72468;SHT30;60626;43.582;1.470;2022-09-09T12:53:30;23.54;61.35
72468;SHT30;60626;43.582;1.470;2022-09-09T12:56:07;23.56;62.82
72468;SHT30;60626;43.582;1.470;2022-09-09T12:58:36;23.56;61.60
72468;SHT30;60626;43.582;1.470;2022-09-09T13:01:05;23.58;62.04
72468;SHT30;60626;43.582;1.470;2022-09-09T13:03:33;23.61;61.78
72468;SHT30;60626;43.582;1.470;2022-09-09T13:06:17;23.59;61.96
72468;SHT30;60626;43.582;1.470;2022-09-09T13:08:45;23.62;61.59
72468;SHT30;60626;43.582;1.470;2022-09-09T13:11:20;23.63;60.93
72468;SHT30;60626;43.582;1.470;2022-09-09T13:13:52;23.65;61.40
72468;SHT30;60626;43.582;1.470;2022-09-09T13:16:29;23.67;60.87
72468;SHT30;60626;43.582;1.470;2022-09-09T13:19:09;23.72;60.65
72468;SHT30;60626;43.582;1.470;2022-09-09T13:21:38;23.73;61.33
72468;SHT30;60626;43.582;1.470;2022-09-09T13:24:29;23.74;62.13
72468;SHT30;60626;43.582;1.470;2022-09-09T13:27:03;23.79;61.69
72468;SHT30;60626;43.582;1.470;2022-09-09T13:29:31;23.83;60.97
72468;SHT30;60626;43.582;1.470;2022-09-09T13:32:06;23.89;61.13
72468;SHT30;60626;43.582;1.470;2022-09-09T13:34:35;23.92;60.90
72468;SHT30;60626;43.582;1.470;2022-09-09T13:37:06;24.03;60.56
72468;SHT30;60626;43.582;1.470;2022-09-09T13:39:40;24.09;60.27
72468;SHT30;60626;43.582;1.470;2022-09-09T13:42:25;24.13;60.67
72468;SHT30;60626;43.582;1.470;2022-09-09T13:44:53;24.18;60.57
72468;SHT30;60626;43.582;1.470;2022-09-09T13:47:29;24.20;60.00
72468;SHT30;60626;43.582;1.470;2022-09-09T13:49:57;24.22;60.79
72468;SHT30;60626;43.582;1.470;2022-09-09T13:52:29;24.30;60.00
72468;SHT30;60626;43.582;1.470;2022-09-09T13:54:57;24.32;59.73
72468;SHT30;60626;43.582;1.470;2022-09-09T13:57:25;24.32;59.94
72468;SHT30;60626;43.582;1.470;2022-09-09T13:59:53;24.37;60.12
72468;SHT30;60626;43.582;1.470;2022-09-09T14:02:36;24.41;60.36
72468;SHT30;60626;43.582;1.470;2022-09-09T14:05:05;24.45;59.36
72468;SHT30;60626;43.582;1.470;2022-09-09T14:07:32;24.48;59.24
72468;SHT30;60626;43.582;1.470;2022-09-09T14:09:59;24.48;59.25
72468;SHT30;60626;43.582;1.470;2022-09-09T14:12:26;24.45;58.92
72468;SHT30;60626;43.582;1.470;2022-09-09T14:14:53;24.44;59.02
72468;SHT30;60626;43.582;1.470;2022-09-09T14:17:21;24.45;59.80
72468;SHT30;60626;43.582;1.470;2022-09-09T14:19:48;24.49;59.40
72468;SHT30;60626;43.582;1.470;2022-09-09T14:22:15;24.49;59.07
72468;SHT30;60626;43.582;1.470;2022-09-09T14:24:42;24.48;59.24
72468;SHT30;60626;43.582;1.470;2022-09-09T14:27:08;24.51;58.92
72468;SHT30;60626;43.582;1.470;2022-09-09T14:29:35;24.55;58.20
72468;SHT30;60626;43.582;1.470;2022-09-09T14:32:02;24.59;58.57
72468;SHT30;60626;43.582;1.470;2022-09-09T14:34:28;24.68;57.76
72468;SHT30;60626;43.582;1.470;2022-09-09T14:36:55;24.75;57.20
72468;SHT30;60626;43.582;1.470;2022-09-09T14:39:22;24.86;56.33
72468;SHT30;60626;43.582;1.470;2022-09-09T14:41:48;24.89;56.92
72468;SHT30;60626;43.582;1.470;2022-09-09T14:44:15;24.89;56.99
72468;SHT30;60626;43.582;1.470;2022-09-09T14:46:42;24.89;55.88
72468;SHT30;60626;43.582;1.470;2022-09-09T14:49:10;24.92;55.97
72468;SHT30;60626;43.582;1.470;2022-09-09T14:51:37;24.94;56.01
72468;SHT30;60626;43.582;1.470;2022-09-09T14:54:04;24.99;56.05
72468;SHT30;60626;43.582;1.470;2022-09-09T14:56:32;25.03;55.39
72468;SHT30;60626;43.582;1.470;2022-09-09T14:59:01;25.03;54.80
72468;SHT30;60626;43.582;1.470;2022-09-09T15:01:29;25.10;54.29
72468;SHT30;60626;43.582;1.470;2022-09-09T15:04:01;25.12;55.19
72468;SHT30;60626;43.582;1.470;2022-09-09T15:06:32;25.13;54.63
72468;SHT30;60626;43.582;1.470;2022-09-09T15:09:00;25.20;54.76
72468;SHT30;60626;43.582;1.470;2022-09-09T15:11:29;25.21;55.10
72468;SHT30;60626;43.582;1.470;2022-09-09T15:13:57;25.21;55.08
72468;SHT30;60626;43.582;1.470;2022-09-09T15:16:27;25.27;55.07
72468;SHT30;60626;43.582;1.470;2022-09-09T15:18:56;25.30;54.80
72468;SHT30;60626;43.582;1.470;2022-09-09T15:21:26;25.33;54.97
72468;SHT30;60626;43.582;1.470;2022-09-09T15:23:53;25.30;54.16
72468;SHT30;60626;43.582;1.470;2022-09-09T15:26:20;25.31;54.05
72468;SHT30;60626;43.582;1.470;2022-09-09T15:28:48;25.34;53.64
72468;SHT30;60626;43.582;1.470;2022-09-09T15:31:21;25.34;53.67
72468;SHT30;60626;43.582;1.470;2022-09-09T15:36:26;25.27;53.49
72468;SHT30;60626;43.582;1.470;2022-09-09T15:38:55;25.26;53.73
72468;SHT30;60626;43.582;1.470;2022-09-09T15:41:22;25.26;53.86
72468;SHT30;60626;43.582;1.470;2022-09-09T15:43:52;25.24;54.26
72468;SHT30;60626;43.582;1.470;2022-09-09T15:46:34;25.24;54.16
72468;SHT30;60626;43.582;1.470;2022-09-09T15:51:41;25.21;54.79
72468;SHT30;60626;43.582;1.470;2022-09-09T15:54:15;25.24;54.31
72468;SHT30;60626;43.582;1.470;2022-09-09T15:56:47;25.28;53.93
72468;SHT30;60626;43.582;1.470;2022-09-09T15:59:16;25.33;53.54
72468;SHT30;60626;43.582;1.470;2022-09-09T16:01:43;25.34;53.25
72468;SHT30;60626;43.582;1.470;2022-09-09T16:04:10;25.38;52.97
72468;SHT30;60626;43.582;1.470;2022-09-09T16:06:37;25.45;53.52
72468;SHT30;60626;43.582;1.470;2022-09-09T16:09:07;25.45;53.87
72468;SHT30;60626;43.582;1.470;2022-09-09T16:11:36;25.50;53.86
72468;SHT30;60626;43.582;1.470;2022-09-09T16:14:04;25.54;53.60
72468;SHT30;60626;43.582;1.470;2022-09-09T16:16:33;25.48;52.86
72468;SHT30;60626;43.582;1.470;2022-09-09T16:19:06;25.48;53.59
72468;SHT30;60626;43.582;1.470;2022-09-09T16:21:39;25.44;53.19
72468;SHT30;60626;43.582;1.470;2022-09-09T16:24:07;25.42;52.72
72468;SHT30;60626;43.582;1.470;2022-09-09T16:26:36;25.44;52.69
72468;SHT30;60626;43.582;1.470;2022-09-09T16:29:04;25.47;52.65
72468;SHT30;60626;43.582;1.470;2022-09-09T16:31:31;25.48;52.80
72468;SHT30;60626;43.582;1.470;2022-09-09T16:33:58;25.51;53.20
72468;SHT30;60626;43.582;1.470;2022-09-09T16:36:27;25.52;52.74
72468;SHT30;60626;43.582;1.470;2022-09-09T16:38:58;25.57;52.86
72468;SHT30;60626;43.582;1.470;2022-09-09T16:41:26;25.57;52.51
72468;SHT30;60626;43.582;1.470;2022-09-09T16:43:58;25.58;52.59
72468;SHT30;60626;43.582;1.470;2022-09-09T16:46:26;25.58;52.35
72468;SHT30;60626;43.582;1.470;2022-09-09T16:48:57;25.58;52.73
72468;SHT30;60626;43.582;1.470;2022-09-09T16:51:30;25.61;52.40
72468;SHT30;60626;43.582;1.470;2022-09-09T16:54:01;25.59;52.70
72468;SHT30;60626;43.582;1.470;2022-09-09T16:56:30;25.59;52.34
72468;SHT30;60626;43.582;1.470;2022-09-09T16:59:01;25.59;52.54
72468;SHT30;60626;43.582;1.470;2022-09-09T17:01:33;25.59;52.81
72468;SHT30;60626;43.582;1.470;2022-09-09T17:04:03;25.54;51.83
72468;SHT30;60626;43.582;1.470;2022-09-09T17:06:32;25.52;51.70
72468;SHT30;60626;43.582;1.470;2022-09-09T17:09:06;25.48;51.34
72468;SHT30;60626;43.582;1.470;2022-09-09T17:11:33;25.48;50.70
72468;SHT30;60626;43.582;1.470;2022-09-09T17:14:00;25.51;51.47
72468;SHT30;60626;43.582;1.470;2022-09-09T17:16:30;25.48;52.02
72468;SHT30;60626;43.582;1.470;2022-09-09T17:18:58;25.45;51.30
72468;SHT30;60626;43.582;1.470;2022-09-09T17:21:28;25.44;50.85
72468;SHT30;60626;43.582;1.470;2022-09-09T17:23:56;25.41;50.56
72468;SHT30;60626;43.582;1.470;2022-09-09T17:26:26;25.41;50.73
72468;SHT30;60626;43.582;1.470;2022-09-09T17:28:54;25.37;50.04
72468;SHT30;60626;43.582;1.470;2022-09-09T17:31:25;25.38;50.29
72468;SHT30;60626;43.582;1.470;2022-09-09T17:33:53;25.34;50.70
72468;SHT30;60626;43.582;1.470;2022-09-09T17:36:23;25.31;51.35
72468;SHT30;60626;43.582;1.470;2022-09-09T17:38:51;25.27;50.80
72468;SHT30;60626;43.582;1.470;2022-09-09T17:41:23;25.24;50.70
72468;SHT30;60626;43.582;1.470;2022-09-09T17:43:50;25.24;50.68
72468;SHT30;60626;43.582;1.470;2022-09-09T17:48:50;25.17;50.65
72468;SHT30;60626;43.582;1.470;2022-09-09T17:51:19;25.20;50.86
72468;SHT30;60626;43.582;1.470;2022-09-09T17:53:51;25.16;51.06
72468;SHT30;60626;43.582;1.470;2022-09-09T17:56:19;25.14;51.23
72468;SHT30;60626;43.582;1.470;2022-09-09T17:58:50;25.16;50.87
72468;SHT30;60626;43.582;1.470;2022-09-09T18:01:19;25.13;50.70
72468;SHT30;60626;43.582;1.470;2022-09-09T18:03:47;25.13;50.83
72468;SHT30;60626;43.582;1.470;2022-09-09T18:06:17;25.10;50.93
72468;SHT30;60626;43.582;1.470;2022-09-09T18:08:50;25.10;51.20
72468;SHT30;60626;43.582;1.470;2022-09-09T18:11:19;25.04;51.33
72468;SHT30;60626;43.582;1.470;2022-09-09T18:13:55;25.04;51.47
72468;SHT30;60626;43.582;1.470;2022-09-09T18:16:23;25.02;51.76
72468;SHT30;60626;43.582;1.470;2022-09-09T18:18:51;24.99;51.44
72468;SHT30;60626;43.582;1.470;2022-09-09T18:21:18;24.99;51.48
72468;SHT30;60626;43.582;1.470;2022-09-09T18:23:46;24.99;51.92